sensor_id;sensor_type;location;lat;lon;timestamp;pressure;altitude;pressure_sealevel;temperature;humidity
12207;BME280;6166;42.806;23.408;2022-08-11T00:01:11;72126.63;;;-144.35;100.00
12207;BME280;6166;42.806;23.408;2022-08-11T00:03:44;72114.22;;;-144.35;100.00
12207;BME280;6166;42.806;23.408;2022-08-11T00:06:12;72099.78;;;-144.35;100.00
12207;BME280;6166;42.806;23.408;2022-08-11T00:08:40;72097.72;;;-144.35;100.00
12207;BME280;6166;42.806;23.408;2022-08-11T00:11:09;72124.56;;;-144.35;100.00
12207;BME280;6166;42.806;23.408;2022-08-11T00:13:39;72112.16;;;-144.35;100.00
12207;BME280;6166;42.806;23.408;2022-08-11T00:16:13;72110.09;;;-144.35;100.00
12207;BME280;6166;42.806;23.408;2022-08-11T00:18:45;72105.97;;;-144.35;100.00
12207;BME280;6166;42.806;23.408;2022-08-11T00:21:19;72132.81;;;-144.35;100.00
12207;BME280;6166;42.806;23.408;2022-08-11T00:23:53;72110.09;;;-144.35;100.00
12207;BME280;6166;42.806;23.408;2022-08-11T00:26:27;72097.72;;;-144.35;100.00
12207;BME280;6166;42.806;23.408;2022-08-11T00:28:55;72089.44;;;-144.35;100.00
12207;BME280;6166;42.806;23.408;2022-08-11T00:31:27;72079.13;;;-144.35;100.00
12207;BME280;6166;42.806;23.408;2022-08-11T00:33:54;72072.94;;;-144.35;100.00
12207;BME280;6166;42.806;23.408;2022-08-11T00:36:27;72072.94;;;-144.35;100.00
12207;BME280;6166;42.806;23.408;2022-08-11T00:39:02;72072.94;;;-144.35;100.00
12207;BME280;6166;42.806;23.408;2022-08-11T00:41:33;72089.44;;;-144.35;100.00
12207;BME280;6166;42.806;23.408;2022-08-11T00:47:14;72172.03;;;-144.35;100.00
12207;BME280;6166;42.806;23.408;2022-08-11T00:49:54;72176.19;;;-144.35;100.00
12207;BME280;6166;42.806;23.408;2022-08-11T00:52:58;72159.66;;;-144.35;100.00
12207;BME280;6166;42.806;23.408;2022-08-11T00:55:52;72145.19;;;-144.35;100.00
12207;BME280;6166;42.806;23.408;2022-08-11T00:58:42;72143.13;;;-144.35;100.00
12207;BME280;6166;42.806;23.408;2022-08-11T01:01:21;72139.00;;;-144.35;100.00
12207;BME280;6166;42.806;23.408;2022-08-11T01:04:14;72143.13;;;-144.35;100.00
12207;BME280;6166;42.806;23.408;2022-08-11T01:06:50;72151.41;;;-144.35;99.50
12207;BME280;6166;42.806;23.408;2022-08-11T01:09:26;72151.41;;;-144.35;99.10
12207;BME280;6166;42.806;23.408;2022-08-11T01:12:14;72153.47;;;-144.35;98.76
12207;BME280;6166;42.806;23.408;2022-08-11T01:15:19;72159.66;;;-144.35;98.35
12207;BME280;6166;42.806;23.408;2022-08-11T01:18:20;72159.66;;;-144.35;98.30
12207;BME280;6166;42.806;23.408;2022-08-11T01:21:18;72167.91;;;-144.35;97.83
12207;BME280;6166;42.806;23.408;2022-08-11T01:27:12;72186.50;;;-144.35;97.69
12207;BME280;6166;42.806;23.408;2022-08-11T01:30:11;72190.63;;;-144.35;97.72
12207;BME280;6166;42.806;23.408;2022-08-11T01:39:47;72211.28;;;-144.35;98.19
12207;BME280;6166;42.806;23.408;2022-08-11T01:42:53;72225.72;;;-144.35;98.19
12207;BME280;6166;42.806;23.408;2022-08-11T01:45:48;72234.00;;;-144.35;98.73
12207;BME280;6166;42.806;23.408;2022-08-11T01:48:32;72234.00;;;-144.35;98.76
12207;BME280;6166;42.806;23.408;2022-08-11T01:51:22;72244.31;;;-144.35;98.77
12207;BME280;6166;42.806;23.408;2022-08-11T01:53:55;72250.50;;;-144.35;98.86
12207;BME280;6166;42.806;23.408;2022-08-11T01:56:40;72260.84;;;-144.35;99.34
12207;BME280;6166;42.806;23.408;2022-08-11T01:59:15;72264.97;;;-144.35;99.64
12207;BME280;6166;42.806;23.408;2022-08-11T02:02:02;72279.44;;;-144.35;100.00
12207;BME280;6166;42.806;23.408;2022-08-11T02:04:42;72283.56;;;-144.35;100.00
12207;BME280;6166;42.806;23.408;2022-08-11T02:07:21;72293.88;;;-144.35;100.00
12207;BME280;6166;42.806;23.408;2022-08-11T02:10:10;72295.94;;;-144.35;100.00
12207;BME280;6166;42.806;23.408;2022-08-11T02:12:57;72291.81;;;-144.35;100.00
12207;BME280;6166;42.806;23.408;2022-08-11T02:15:28;72295.94;;;-144.35;100.00
12207;BME280;6166;42.806;23.408;2022-08-11T02:18:09;72287.69;;;-144.35;100.00
12207;BME280;6166;42.806;23.408;2022-08-11T02:20:43;72295.94;;;-144.35;99.99
12207;BME280;6166;42.806;23.408;2022-08-11T02:23:32;72298.00;;;-144.35;99.87
12207;BME280;6166;42.806;23.408;2022-08-11T02:26:10;72295.94;;;-144.35;99.56
12207;BME280;6166;42.806;23.408;2022-08-11T02:28:50;72283.56;;;-144.35;99.36
12207;BME280;6166;42.806;23.408;2022-08-11T02:31:26;72304.19;;;-144.35;99.56
12207;BME280;6166;42.806;23.408;2022-08-11T02:34:23;72293.88;;;-144.35;98.81
12207;BME280;6166;42.806;23.408;2022-08-11T02:36:57;72300.06;;;-144.35;98.84
12207;BME280;6166;42.806;23.408;2022-08-11T02:39:38;72295.94;;;-144.35;98.65
12207;BME280;6166;42.806;23.408;2022-08-11T02:42:25;72295.94;;;-144.35;98.88
12207;BME280;6166;42.806;23.408;2022-08-11T02:45:12;72287.69;;;-144.35;98.87
12207;BME280;6166;42.806;23.408;2022-08-11T02:47:47;72283.56;;;-144.35;98.25
12207;BME280;6166;42.806;23.408;2022-08-11T02:50:36;72312.47;;;-144.35;98.08
12207;BME280;6166;42.806;23.408;2022-08-11T02:53:10;72312.47;;;-144.35;98.14
12207;BME280;6166;42.806;23.408;2022-08-11T02:55:52;72308.34;;;-144.35;100.00
12207;BME280;6166;42.806;23.408;2022-08-11T02:58:30;72320.72;;;-144.35;100.00
12207;BME280;6166;42.806;23.408;2022-08-11T03:01:07;72322.78;;;-144.35;100.00
12207;BME280;6166;42.806;23.408;2022-08-11T03:03:49;72320.72;;;-144.35;100.00
12207;BME280;6166;42.806;23.408;2022-08-11T03:06:26;72316.59;;;-144.35;100.00
12207;BME280;6166;42.806;23.408;2022-08-11T03:09:02;72333.13;;;-144.35;100.00
12207;BME280;6166;42.806;23.408;2022-08-11T03:11:51;72333.13;;;-144.35;100.00
12207;BME280;6166;42.806;23.408;2022-08-11T03:14:47;72324.84;;;-144.35;100.00
12207;BME280;6166;42.806;23.408;2022-08-11T03:17:36;72357.91;;;-144.35;100.00
12207;BME280;6166;42.806;23.408;2022-08-11T03:20:15;72341.38;;;-144.35;100.00
12207;BME280;6166;42.806;23.408;2022-08-11T03:22:51;72345.50;;;-144.35;100.00
12207;BME280;6166;42.806;23.408;2022-08-11T03:25:29;72335.19;;;-144.35;100.00
12207;BME280;6166;42.806;23.408;2022-08-11T03:28:08;72331.06;;;-144.35;100.00
12207;BME280;6166;42.806;23.408;2022-08-11T03:30:49;72326.91;;;-144.35;100.00
12207;BME280;6166;42.806;23.408;2022-08-11T03:33:22;72326.91;;;-144.35;100.00
12207;BME280;6166;42.806;23.408;2022-08-11T03:36:32;72320.72;;;-144.35;100.00
12207;BME280;6166;42.806;23.408;2022-08-11T03:39:11;72320.72;;;-144.35;100.00
12207;BME280;6166;42.806;23.408;2022-08-11T03:41:48;72316.59;;;-144.35;100.00
12207;BME280;6166;42.806;23.408;2022-08-11T03:44:27;72347.56;;;-144.35;100.00
12207;BME280;6166;42.806;23.408;2022-08-11T03:47:11;72335.19;;;-144.35;100.00
12207;BME280;6166;42.806;23.408;2022-08-11T03:49:56;72339.31;;;-144.35;100.00
12207;BME280;6166;42.806;23.408;2022-08-11T03:52:46;72331.06;;;-144.35;99.99
12207;BME280;6166;42.806;23.408;2022-08-11T03:55:27;72333.13;;;-144.35;99.34
12207;BME280;6166;42.806;23.408;2022-08-11T03:58:26;72316.59;;;-144.35;98.81
12207;BME280;6166;42.806;23.408;2022-08-11T04:01:37;72314.53;;;-144.35;99.57
12207;BME280;6166;42.806;23.408;2022-08-11T04:07:26;72308.34;;;-144.35;99.08
12207;BME280;6166;42.806;23.408;2022-08-11T04:10:36;72287.69;;;-144.35;98.28
12207;BME280;6166;42.806;23.408;2022-08-11T04:13:48;72308.34;;;-144.35;96.75
12207;BME280;6166;42.806;23.408;2022-08-11T04:16:44;72326.91;;;-144.35;100.00
12207;BME280;6166;42.806;23.408;2022-08-11T04:19:35;72328.97;;;-144.35;100.00
12207;BME280;6166;42.806;23.408;2022-08-11T04:25:37;72343.44;;;-144.35;100.00
12207;BME280;6166;42.806;23.408;2022-08-11T04:28:30;72333.13;;;-144.35;100.00
12207;BME280;6166;42.806;23.408;2022-08-11T04:31:09;72328.97;;;-144.35;100.00
12207;BME280;6166;42.806;23.408;2022-08-11T04:33:58;72312.47;;;-144.35;100.00
12207;BME280;6166;42.806;23.408;2022-08-11T04:39:59;72283.56;;;-144.35;100.00
12207;BME280;6166;42.806;23.408;2022-08-11T04:42:56;72287.69;;;-144.35;100.00
12207;BME280;6166;42.806;23.408;2022-08-11T04:49:13;72306.28;;;-144.35;100.00
12207;BME280;6166;42.806;23.408;2022-08-11T04:52:12;72275.28;;;-144.35;100.00
12207;BME280;6166;42.806;23.408;2022-08-11T04:55:19;72260.84;;;-144.35;100.00
12207;BME280;6166;42.806;23.408;2022-08-11T04:58:16;72267.03;;;-144.35;100.00
12207;BME280;6166;42.806;23.408;2022-08-11T05:01:17;72258.78;;;-144.35;100.00
12207;BME280;6166;42.806;23.408;2022-08-11T05:04:14;72246.38;;;-144.35;100.00
12207;BME280;6166;42.806;23.408;2022-08-11T05:07:14;72217.47;;;-144.35;100.00
12207;BME280;6166;42.806;23.408;2022-08-11T05:10:01;72217.47;;;-144.35;100.00
12207;BME280;6166;42.806;23.408;2022-08-11T05:12:35;72213.34;;;-144.35;100.00
12207;BME280;6166;42.806;23.408;2022-08-11T05:15:11;72188.56;;;-144.35;100.00
12207;BME280;6166;42.806;23.408;2022-08-11T05:18:00;72190.63;;;-144.35;100.00
12207;BME280;6166;42.806;23.408;2022-08-11T05:20:49;72188.56;;;-144.35;100.00
12207;BME280;6166;42.806;23.408;2022-08-11T05:23:38;72200.94;;;-144.35;100.00
12207;BME280;6166;42.806;23.408;2022-08-11T05:26:24;72196.81;;;-144.35;100.00
12207;BME280;6166;42.806;23.408;2022-08-11T05:29:25;72163.78;;;-144.35;100.00
12207;BME280;6166;42.806;23.408;2022-08-11T05:32:14;72172.03;;;-144.35;100.00
12207;BME280;6166;42.806;23.408;2022-08-11T05:35:02;72124.56;;;-144.35;100.00
12207;BME280;6166;42.806;23.408;2022-08-11T05:37:40;72122.47;;;-144.35;100.00
12207;BME280;6166;42.806;23.408;2022-08-11T05:40:22;72097.72;;;-144.35;100.00
12207;BME280;6166;42.806;23.408;2022-08-11T05:43:11;72093.56;;;-144.35;98.78
12207;BME280;6166;42.806;23.408;2022-08-11T05:45:58;72072.94;;;-144.35;97.65
12207;BME280;6166;42.806;23.408;2022-08-11T05:48:44;72064.66;;;-144.35;98.17
12207;BME280;6166;42.806;23.408;2022-08-11T05:51:36;72068.81;;;-144.35;97.61
12207;BME280;6166;42.806;23.408;2022-08-11T05:54:25;72091.50;;;-144.35;99.42
12207;BME280;6166;42.806;23.408;2022-08-11T05:57:17;72097.72;;;-144.35;97.41
12207;BME280;6166;42.806;23.408;2022-08-11T05:59:46;72097.72;;;-144.35;98.48
12207;BME280;6166;42.806;23.408;2022-08-11T06:02:13;72083.25;;;-144.35;99.16
12207;BME280;6166;42.806;23.408;2022-08-11T06:04:40;72048.16;;;-144.35;97.46
12207;BME280;6166;42.806;23.408;2022-08-11T06:07:09;72035.75;;;-144.35;95.43
12207;BME280;6166;42.806;23.408;2022-08-11T06:09:45;72013.03;;;-144.35;94.74
12207;BME280;6166;42.806;23.408;2022-08-11T06:12:16;72002.72;;;-144.35;94.42
12207;BME280;6166;42.806;23.408;2022-08-11T06:14:51;71996.53;;;-144.35;93.20
12207;BME280;6166;42.806;23.408;2022-08-11T06:17:22;71990.34;;;-144.35;92.74
12207;BME280;6166;42.806;23.408;2022-08-11T06:19:50;71980.00;;;-144.35;92.17
12207;BME280;6166;42.806;23.408;2022-08-11T06:22:21;71977.94;;;-144.35;90.08
12207;BME280;6166;42.806;23.408;2022-08-11T06:24:56;71957.28;;;-144.35;90.24
12207;BME280;6166;42.806;23.408;2022-08-11T06:27:25;71994.47;;;-144.35;87.95
12207;BME280;6166;42.806;23.408;2022-08-11T06:29:52;71982.06;;;-144.35;87.70
12207;BME280;6166;42.806;23.408;2022-08-11T06:32:23;71973.81;;;-144.35;89.38
12207;BME280;6166;42.806;23.408;2022-08-11T06:35:02;71967.63;;;-144.35;87.87
12207;BME280;6166;42.806;23.408;2022-08-11T06:37:39;71969.69;;;-144.35;88.48
12207;BME280;6166;42.806;23.408;2022-08-11T06:40:24;71936.66;;;-144.35;88.39
12207;BME280;6166;42.806;23.408;2022-08-11T06:42:57;71903.59;;;-144.35;87.71
12207;BME280;6166;42.806;23.408;2022-08-11T06:45:31;71907.75;;;-144.35;86.23
12207;BME280;6166;42.806;23.408;2022-08-11T06:48:00;71907.75;;;-144.35;86.36
12207;BME280;6166;42.806;23.408;2022-08-11T06:50:31;71882.97;;;-144.35;85.99
12207;BME280;6166;42.806;23.408;2022-08-11T06:53:18;71849.94;;;-144.35;85.13
12207;BME280;6166;42.806;23.408;2022-08-11T06:55:48;71858.19;;;-144.35;84.63
12207;BME280;6166;42.806;23.408;2022-08-11T06:58:36;71833.41;;;-144.35;81.83
12207;BME280;6166;42.806;23.408;2022-08-11T07:01:39;71833.41;;;-144.35;82.83
12207;BME280;6166;42.806;23.408;2022-08-11T07:04:12;71808.63;;;-144.35;80.77
12207;BME280;6166;42.806;23.408;2022-08-11T07:06:56;71827.22;;;-144.35;80.87
12207;BME280;6166;42.806;23.408;2022-08-11T07:10:24;71794.19;;;-144.35;80.36
12207;BME280;6166;42.806;23.408;2022-08-11T07:23:20;71746.69;;;-144.35;75.75
12207;BME280;6166;42.806;23.408;2022-08-11T07:26:05;71713.66;;;-144.35;74.91
12207;BME280;6166;42.806;23.408;2022-08-11T07:28:50;71653.78;;;-144.35;74.23
12207;BME280;6166;42.806;23.408;2022-08-11T07:31:45;71649.66;;;-144.35;72.87
12207;BME280;6166;42.806;23.408;2022-08-11T07:34:18;71618.69;;;-144.35;69.85
12207;BME280;6166;42.806;23.408;2022-08-11T07:36:49;71670.28;;;-144.35;70.60
12207;BME280;6166;42.806;23.408;2022-08-11T07:39:20;71645.53;;;-144.35;71.25
12207;BME280;6166;42.806;23.408;2022-08-11T07:41:48;71614.56;;;-144.35;69.20
12207;BME280;6166;42.806;23.408;2022-08-11T07:44:16;71616.63;;;-144.35;67.81
12207;BME280;6166;42.806;23.408;2022-08-11T07:46:45;71618.69;;;-144.35;68.32
12207;BME280;6166;42.806;23.408;2022-08-11T07:49:33;71571.19;;;-144.35;66.86
12207;BME280;6166;42.806;23.408;2022-08-11T07:52:19;71614.56;;;-144.35;67.18
12207;BME280;6166;42.806;23.408;2022-08-11T07:55:02;71569.13;;;-144.35;67.21
12207;BME280;6166;42.806;23.408;2022-08-11T07:57:34;71511.31;;;-144.35;64.77
12207;BME280;6166;42.806;23.408;2022-08-11T08:00:18;71494.81;;;-144.35;63.16
12207;BME280;6166;42.806;23.408;2022-08-11T08:03:05;71474.16;;;-144.35;63.44
12207;BME280;6166;42.806;23.408;2022-08-11T08:05:50;71424.59;;;-144.35;62.80
12207;BME280;6166;42.806;23.408;2022-08-11T08:08:41;71432.88;;;-144.35;61.66
12207;BME280;6166;42.806;23.408;2022-08-11T08:11:30;71403.97;;;-144.35;61.04
12207;BME280;6166;42.806;23.408;2022-08-11T08:14:16;71461.78;;;-144.35;63.08
12207;BME280;6166;42.806;23.408;2022-08-11T08:17:10;71556.75;;;-144.35;66.40
12207;BME280;6166;42.806;23.408;2022-08-11T08:19:55;71517.50;;;-144.35;65.97
12207;BME280;6166;42.806;23.408;2022-08-11T08:22:22;71478.28;;;-144.35;64.23
12207;BME280;6166;42.806;23.408;2022-08-11T08:24:49;71486.53;;;-144.35;64.93
12207;BME280;6166;42.806;23.408;2022-08-11T08:27:19;71544.34;;;-144.35;66.41
12207;BME280;6166;42.806;23.408;2022-08-11T08:29:47;71494.81;;;-144.35;66.45
12207;BME280;6166;42.806;23.408;2022-08-11T08:32:33;71517.50;;;-144.35;64.74
12207;BME280;6166;42.806;23.408;2022-08-11T08:35:04;71540.22;;;-144.35;65.48
12207;BME280;6166;42.806;23.408;2022-08-11T08:37:32;71494.81;;;-144.35;64.14
12207;BME280;6166;42.806;23.408;2022-08-11T08:39:58;71494.81;;;-144.35;63.99
12207;BME280;6166;42.806;23.408;2022-08-11T08:42:28;71467.97;;;-144.35;62.44
12207;BME280;6166;42.806;23.408;2022-08-11T08:45:00;71443.19;;;-144.35;62.53
12207;BME280;6166;42.806;23.408;2022-08-11T08:47:42;71412.22;;;-144.35;62.05
12207;BME280;6166;42.806;23.408;2022-08-11T08:50:14;71403.97;;;-144.35;61.97
12207;BME280;6166;42.806;23.408;2022-08-11T08:52:48;71379.19;;;-144.35;60.79
12207;BME280;6166;42.806;23.408;2022-08-11T08:55:18;71375.06;;;-144.35;61.02
12207;BME280;6166;42.806;23.408;2022-08-11T08:57:47;71317.25;;;-144.35;59.54
12207;BME280;6166;42.806;23.408;2022-08-11T09:00:16;71379.19;;;-144.35;59.40
12207;BME280;6166;42.806;23.408;2022-08-11T09:02:44;71408.09;;;-144.35;62.39
12207;BME280;6166;42.806;23.408;2022-08-11T09:05:11;71480.34;;;-144.35;62.30
12207;BME280;6166;42.806;23.408;2022-08-11T09:07:39;71428.75;;;-144.35;61.71
12207;BME280;6166;42.806;23.408;2022-08-11T09:10:19;71443.19;;;-144.35;62.14
12207;BME280;6166;42.806;23.408;2022-08-11T09:12:49;71459.69;;;-144.35;62.79
12207;BME280;6166;42.806;23.408;2022-08-11T09:15:18;71426.66;;;-144.35;61.51
12207;BME280;6166;42.806;23.408;2022-08-11T09:18:13;71461.78;;;-144.35;61.65
12207;BME280;6166;42.806;23.408;2022-08-11T09:20:50;71511.31;;;-144.35;63.76
12207;BME280;6166;42.806;23.408;2022-08-11T09:23:18;71490.69;;;-144.35;62.97
12207;BME280;6166;42.806;23.408;2022-08-11T09:26:03;71511.31;;;-144.35;63.86
12207;BME280;6166;42.806;23.408;2022-08-11T09:28:49;71525.78;;;-144.35;64.60
12207;BME280;6166;42.806;23.408;2022-08-11T09:31:18;71536.09;;;-144.35;65.16
12207;BME280;6166;42.806;23.408;2022-08-11T09:33:47;71519.56;;;-144.35;65.10
12207;BME280;6166;42.806;23.408;2022-08-11T09:36:17;71457.63;;;-144.35;63.11
12207;BME280;6166;42.806;23.408;2022-08-11T09:39:03;71366.81;;;-144.35;62.04
12207;BME280;6166;42.806;23.408;2022-08-11T09:41:49;71350.28;;;-144.35;58.07
12207;BME280;6166;42.806;23.408;2022-08-11T09:44:18;71300.75;;;-144.35;57.87
12207;BME280;6166;42.806;23.408;2022-08-11T09:47:02;71313.13;;;-144.35;58.13
12207;BME280;6166;42.806;23.408;2022-08-11T09:49:40;71339.97;;;-144.35;57.51
12207;BME280;6166;42.806;23.408;2022-08-11T09:52:09;71410.16;;;-144.35;58.68
12207;BME280;6166;42.806;23.408;2022-08-11T09:54:38;71387.44;;;-144.35;58.18
12207;BME280;6166;42.806;23.408;2022-08-11T09:57:06;71418.41;;;-144.35;57.78
12207;BME280;6166;42.806;23.408;2022-08-11T09:59:52;71335.84;;;-144.35;55.39
12207;BME280;6166;42.806;23.408;2022-08-11T10:02:22;71263.59;;;-144.35;51.59
12207;BME280;6166;42.806;23.408;2022-08-11T10:04:55;71282.16;;;-144.35;52.94
12207;BME280;6166;42.806;23.408;2022-08-11T10:07:44;71251.19;;;-144.35;51.42
12207;BME280;6166;42.806;23.408;2022-08-11T10:10:15;71226.41;;;-144.35;51.32
12207;BME280;6166;42.806;23.408;2022-08-11T10:12:49;71185.13;;;-144.35;48.84
12207;BME280;6166;42.806;23.408;2022-08-11T10:15:18;71242.94;;;-144.35;51.93
12207;BME280;6166;42.806;23.408;2022-08-11T10:18:05;71201.66;;;-144.35;54.47
12207;BME280;6166;42.806;23.408;2022-08-11T10:20:51;71242.94;;;-144.35;54.29
12207;BME280;6166;42.806;23.408;2022-08-11T10:23:21;71284.22;;;-144.35;53.60
12207;BME280;6166;42.806;23.408;2022-08-11T10:26:06;71284.22;;;-144.35;60.08
12207;BME280;6166;42.806;23.408;2022-08-11T10:28:51;71259.44;;;-144.35;60.50
12207;BME280;6166;42.806;23.408;2022-08-11T10:31:22;71288.34;;;-144.35;60.46
12207;BME280;6166;42.806;23.408;2022-08-11T10:34:07;71201.66;;;-144.35;64.91
12207;BME280;6166;42.806;23.408;2022-08-11T10:36:36;71135.59;;;-144.35;62.81
12207;BME280;6166;42.806;23.408;2022-08-11T10:39:08;71081.91;;;-144.35;58.73
12207;BME280;6166;42.806;23.408;2022-08-11T10:41:43;71073.66;;;-144.35;56.21
12207;BME280;6166;42.806;23.408;2022-08-11T10:44:30;71086.03;;;-144.35;55.98
12207;BME280;6166;42.806;23.408;2022-08-11T10:47:03;71125.25;;;-144.35;53.51
12207;BME280;6166;42.806;23.408;2022-08-11T10:49:48;71152.09;;;-144.35;53.61
12207;BME280;6166;42.806;23.408;2022-08-11T10:52:35;71152.09;;;-144.35;53.83
12207;BME280;6166;42.806;23.408;2022-08-11T10:55:21;71176.88;;;-144.35;53.65
12207;BME280;6166;42.806;23.408;2022-08-11T10:58:06;71174.81;;;-144.35;54.16
12207;BME280;6166;42.806;23.408;2022-08-11T11:00:51;71164.50;;;-144.35;53.08
12207;BME280;6166;42.806;23.408;2022-08-11T11:03:29;71176.88;;;-144.35;50.66
12207;BME280;6166;42.806;23.408;2022-08-11T11:06:02;71168.63;;;-144.35;50.12
12207;BME280;6166;42.806;23.408;2022-08-11T11:08:30;71209.91;;;-144.35;50.31
12207;BME280;6166;42.806;23.408;2022-08-11T11:11:17;71218.16;;;-144.35;50.45
12207;BME280;6166;42.806;23.408;2022-08-11T11:13:47;71257.38;;;-144.35;50.39
12207;BME280;6166;42.806;23.408;2022-08-11T11:16:34;71304.88;;;-144.35;49.53
12207;BME280;6166;42.806;23.408;2022-08-11T11:19:22;71306.94;;;-144.35;52.38
12207;BME280;6166;42.806;23.408;2022-08-11T11:21:54;71313.13;;;-144.35;49.93
12207;BME280;6166;42.806;23.408;2022-08-11T11:24:53;71288.34;;;-144.35;50.70
12207;BME280;6166;42.806;23.408;2022-08-11T11:27:30;71323.44;;;-144.35;52.69
12207;BME280;6166;42.806;23.408;2022-08-11T11:30:03;71370.94;;;-144.35;57.10
12207;BME280;6166;42.806;23.408;2022-08-11T11:32:40;71437.00;;;-144.35;58.82
12207;BME280;6166;42.806;23.408;2022-08-11T11:35:22;71465.91;;;-144.35;69.82
12207;BME280;6166;42.806;23.408;2022-08-11T11:37:53;71470.03;;;-144.35;70.86
12207;BME280;6166;42.806;23.408;2022-08-11T11:40:22;71430.81;;;-144.35;73.08
12207;BME280;6166;42.806;23.408;2022-08-11T11:42:51;71412.22;;;-144.35;74.62
12207;BME280;6166;42.806;23.408;2022-08-11T11:45:21;71416.34;;;-144.35;75.11
12207;BME280;6166;42.806;23.408;2022-08-11T11:47:50;71377.13;;;-144.35;75.77
12207;BME280;6166;42.806;23.408;2022-08-11T11:50:23;71387.44;;;-144.35;76.10
12207;BME280;6166;42.806;23.408;2022-08-11T11:52:51;71432.88;;;-144.35;72.09
12207;BME280;6166;42.806;23.408;2022-08-11T11:55:20;71455.56;;;-144.35;71.90
12207;BME280;6166;42.806;23.408;2022-08-11T11:57:52;71455.56;;;-144.35;71.91
12207;BME280;6166;42.806;23.408;2022-08-11T12:00:42;71445.25;;;-144.35;76.57
12207;BME280;6166;42.806;23.408;2022-08-11T12:03:28;71461.78;;;-144.35;75.64
12207;BME280;6166;42.806;23.408;2022-08-11T12:05:57;71482.41;;;-144.35;74.54
12207;BME280;6166;42.806;23.408;2022-08-11T12:08:28;71480.34;;;-144.35;76.10
12207;BME280;6166;42.806;23.408;2022-08-11T12:10:58;71486.53;;;-144.35;75.79
12207;BME280;6166;42.806;23.408;2022-08-11T12:13:48;71490.69;;;-144.35;79.80
12207;BME280;6166;42.806;23.408;2022-08-11T12:16:17;71492.75;;;-144.35;78.31
12207;BME280;6166;42.806;23.408;2022-08-11T12:18:46;71496.88;;;-144.35;80.77
12207;BME280;6166;42.806;23.408;2022-08-11T12:21:16;71490.69;;;-144.35;84.43
12207;BME280;6166;42.806;23.408;2022-08-11T12:23:48;71536.09;;;-144.35;88.88
12207;BME280;6166;42.806;23.408;2022-08-11T12:26:38;71614.56;;;-144.35;80.96
12207;BME280;6166;42.806;23.408;2022-08-11T12:29:23;71598.03;;;-144.35;83.91
12207;BME280;6166;42.806;23.408;2022-08-11T12:31:52;71659.97;;;-144.35;83.89
12207;BME280;6166;42.806;23.408;2022-08-11T12:34:19;71750.81;;;-144.35;83.11
12207;BME280;6166;42.806;23.408;2022-08-11T12:36:51;71738.44;;;-144.35;82.12
12207;BME280;6166;42.806;23.408;2022-08-11T12:39:21;71709.53;;;-144.35;81.83
12207;BME280;6166;42.806;23.408;2022-08-11T12:42:11;71680.63;;;-144.35;89.20
12207;BME280;6166;42.806;23.408;2022-08-11T12:44:57;71664.09;;;-144.35;90.76
12207;BME280;6166;42.806;23.408;2022-08-11T12:47:46;71631.06;;;-144.35;95.48
12207;BME280;6166;42.806;23.408;2022-08-11T12:50:33;71622.81;;;-144.35;81.65
12207;BME280;6166;42.806;23.408;2022-08-11T12:53:22;71647.59;;;-144.35;82.13
12207;BME280;6166;42.806;23.408;2022-08-11T12:55:52;71653.78;;;-144.35;85.49
12207;BME280;6166;42.806;23.408;2022-08-11T12:58:40;71639.31;;;-144.35;90.00
12207;BME280;6166;42.806;23.408;2022-08-11T13:01:07;71626.94;;;-144.35;90.41
12207;BME280;6166;42.806;23.408;2022-08-11T13:03:53;71571.19;;;-144.35;90.83
12207;BME280;6166;42.806;23.408;2022-08-11T13:06:37;71521.66;;;-144.35;90.00
12207;BME280;6166;42.806;23.408;2022-08-11T13:09:08;71501.00;;;-144.35;87.07
12207;BME280;6166;42.806;23.408;2022-08-11T13:11:38;71523.72;;;-144.35;87.72
12207;BME280;6166;42.806;23.408;2022-08-11T13:14:24;71540.22;;;-144.35;88.45
12207;BME280;6166;42.806;23.408;2022-08-11T13:16:54;71507.19;;;-144.35;89.25
12207;BME280;6166;42.806;23.408;2022-08-11T13:19:40;71476.22;;;-144.35;86.57
12207;BME280;6166;42.806;23.408;2022-08-11T13:22:08;71403.97;;;-144.35;84.48
12207;BME280;6166;42.806;23.408;2022-08-11T13:24:41;71329.66;;;-144.35;81.20
12207;BME280;6166;42.806;23.408;2022-08-11T13:27:10;71280.09;;;-144.35;76.69
12207;BME280;6166;42.806;23.408;2022-08-11T13:29:54;71238.81;;;-144.35;76.32
12207;BME280;6166;42.806;23.408;2022-08-11T13:32:43;71205.78;;;-144.35;75.21
12207;BME280;6166;42.806;23.408;2022-08-11T13:35:11;71164.50;;;-144.35;75.69
12207;BME280;6166;42.806;23.408;2022-08-11T13:37:40;71104.63;;;-144.35;73.12
12207;BME280;6166;42.806;23.408;2022-08-11T13:40:10;71086.03;;;-144.35;69.07
12207;BME280;6166;42.806;23.408;2022-08-11T13:42:39;71057.16;;;-144.35;66.14
12207;BME280;6166;42.806;23.408;2022-08-11T13:45:07;71077.78;;;-144.35;63.12
12207;BME280;6166;42.806;23.408;2022-08-11T13:47:44;71042.69;;;-144.35;63.10
12207;BME280;6166;42.806;23.408;2022-08-11T13:50:11;71020.00;;;-144.35;62.54
12207;BME280;6166;42.806;23.408;2022-08-11T13:52:50;70980.78;;;-144.35;60.73
12207;BME280;6166;42.806;23.408;2022-08-11T13:55:20;70966.31;;;-144.35;60.24
12207;BME280;6166;42.806;23.408;2022-08-11T13:57:50;70925.03;;;-144.35;60.20
12207;BME280;6166;42.806;23.408;2022-08-11T14:00:19;70898.19;;;-144.35;52.91
12207;BME280;6166;42.806;23.408;2022-08-11T14:02:48;70875.50;;;-144.35;52.54
12207;BME280;6166;42.806;23.408;2022-08-11T14:05:19;70887.88;;;-144.35;50.86
12207;BME280;6166;42.806;23.408;2022-08-11T14:07:52;70887.88;;;-144.35;53.01
12207;BME280;6166;42.806;23.408;2022-08-11T14:10:25;70889.94;;;-144.35;53.52
12207;BME280;6166;42.806;23.408;2022-08-11T14:12:58;70854.84;;;-144.35;51.25
12207;BME280;6166;42.806;23.408;2022-08-11T14:15:44;70838.34;;;-144.35;49.67
12207;BME280;6166;42.806;23.408;2022-08-11T14:18:17;70809.44;;;-144.35;49.60